Gold Beach, OR (97444)

10:12 AM PDT on July 27, 2016 (GMT -0700)
KF7MWX | | Change Station

Elev 56 ft 42.41 °N, 124.42 °W | Updated 18 seconds ago

Clear
Clear
67.3 °F
Feels Like 67.3 °F
N
13.0
Wind Variable Wind from North
Gusts 14.5 mph

Today
High -- | Low -- °F
--% Chance of Precip.
Yesterday
High -- | Low -- °F
Precip. -- in
Pressure 30.02 in
Visibility 9.0 miles
Clouds Clear
Dew Point 58 °F
Humidity 72%
Rainfall 0.00 in
Snow Depth Not available.
6:05 AM 8:41 PM
Last Quarter, 41% visible
METAR KBOK 271656Z AUTO VRB03KT 9SM CLR 16/12 A2998 RMK AO2 SLP164 T01610122
Pressure 30.02 in
Visibility 9.0 miles
Clouds Clear
Dew Point 58 °F
Humidity 72%
Rainfall 0.00 in
Snow Depth Not available.
6:05 AM 8:41 PM
Last Quarter, 41% visible
METAR KBOK 271656Z AUTO VRB03KT 9SM CLR 16/12 A2998 RMK AO2 SLP164 T01610122

10-Day Weather Forecast

Almanac

Astronomy

Jul. 27, 2016 Rise Set
Actual Time
Civil Twilight
Nautical Twilight
Astronomical Twilight
Moon
Length of Visible Light
Length of Day
Tomorrow will be .
, % of the Moon is Illuminated

Today's Extremes

State Highs State Lows

Community

WunderPhotos

Upload Photos

1,927,884 photos uploaded!

WunderBlog® & News

Nearby

Air Quality

  Air Quality AQ Index Pollutant
Not available.

Snow Depth

Station Depth Elevation

Earthquake Activity

City Distance Mag. Time & Date
Minimum magnitude displayed is 2.5.

Coastal Water Temperatures

Place Temperature

Stations

Nearby Weather Stations

Station Location Temp. Windchill Dew Point Humidity Wind Precip. Elev Updated Type
                   

Watches & Warnings

There are currently no watches in effect.